Upstream stations:
Downstream station:
SHEF ID: MTCO2 Tar Creek at 22nd Street Bridge
STATION TYPE:
PRECIP STAGE STAGE(2) RIV-FLOW BAT-LOAD
in ft ft cfs volt
Ccp-Rev Ccp-Rev Ccp-Rev Ccp-Rev Ccp-Rev
(US/Central)
03/21 00:00 0.00 3.84 3.90 10 12.41
03/21 01:00 0.00 3.84 3.91 10 12.41
03/21 02:00 0.00 3.84 3.90 10 12.41
03/21 03:00 0.00 3.84 3.90 10 12.41
03/21 04:00 0.00 3.83 3.90 9 12.33
03/21 05:00 0.00 3.83 3.88 9 12.33
03/21 06:00 0.00 3.83 3.89 9 12.33
03/21 07:00 0.00 3.83 3.89 9 12.33
03/21 08:00 0.00 3.83 3.89 9 12.25
03/21 09:00 0.00 3.83 3.89 9 12.33
03/21 10:00 0.00 3.83 3.89 9 12.65
03/21 11:00 0.00 3.83 3.90 9 12.65
03/21 12:00 0.00 3.82 3.89 9 12.65
03/21 13:00 0.01 3.83 3.89 9 12.89
03/21 14:00 0.00 3.82 3.89 9 13.05
03/21 15:00 0.00 3.84 3.89 10 12.65
03/21 16:00 0.01 3.84 3.90 10 12.49
03/21 17:00 0.18 3.98 4.02 16 12.41
03/21 18:00 0.24 4.35 4.35 48 12.33
03/21 19:00 0.41 4.40 4.40 53 12.33
03/21 20:00 0.01 4.98 5.07 123 12.25
03/21 21:00 0.02 5.61 5.65 221 12.17
03/21 22:00 0.01 5.77 5.84 248 12.17
03/21 23:00 0.47 6.07 6.13 301 12.17